sensor_id;sensor_type;location;lat;lon;timestamp;P1;durP1;ratioP1;P2;durP2;ratioP2
22515;SDS011;11424;48.860;9.624;2023-08-06T00:01:11;143;;;152.8;;
22515;SDS011;11424;48.860;9.624;2023-08-06T00:06:11;135.1;;;144.8;;
22515;SDS011;11424;48.860;9.624;2023-08-06T00:11:11;159.5;;;170.5;;
22515;SDS011;11424;48.860;9.624;2023-08-06T00:16:12;150.3;;;160.6;;
22515;SDS011;11424;48.860;9.624;2023-08-06T00:21:11;130.3;;;139.5;;
22515;SDS011;11424;48.860;9.624;2023-08-06T00:26:11;94.1;;;100.2;;
22515;SDS011;11424;48.860;9.624;2023-08-06T00:31:11;91.7;;;97.9;;
22515;SDS011;11424;48.860;9.624;2023-08-06T00:36:11;118.2;;;126.7;;
22515;SDS011;11424;48.860;9.624;2023-08-06T00:41:11;123;;;132.1;;
22515;SDS011;11424;48.860;9.624;2023-08-06T00:46:11;105.9;;;113.5;;
22515;SDS011;11424;48.860;9.624;2023-08-06T00:51:12;98.1;;;105.3;;
22515;SDS011;11424;48.860;9.624;2023-08-06T00:56:11;99.5;;;107;;
22515;SDS011;11424;48.860;9.624;2023-08-06T01:01:12;101.5;;;109.1;;
22515;SDS011;11424;48.860;9.624;2023-08-06T01:06:12;104.4;;;112.2;;
22515;SDS011;11424;48.860;9.624;2023-08-06T01:11:14;76.9;;;82.4;;
22515;SDS011;11424;48.860;9.624;2023-08-06T01:16:12;95.3;;;102.6;;
22515;SDS011;11424;48.860;9.624;2023-08-06T01:21:12;91.5;;;98.4;;
22515;SDS011;11424;48.860;9.624;2023-08-06T01:26:19;93.8;;;100.9;;
22515;SDS011;11424;48.860;9.624;2023-08-06T01:31:14;96.6;;;103.9;;
22515;SDS011;11424;48.860;9.624;2023-08-06T01:36:12;105.5;;;113.5;;
22515;SDS011;11424;48.860;9.624;2023-08-06T01:41:12;105;;;112.7;;
22515;SDS011;11424;48.860;9.624;2023-08-06T01:46:12;102.9;;;110.5;;
22515;SDS011;11424;48.860;9.624;2023-08-06T01:51:12;94.3;;;101.5;;
22515;SDS011;11424;48.860;9.624;2023-08-06T01:56:12;95.8;;;103;;
22515;SDS011;11424;48.860;9.624;2023-08-06T02:01:12;108.5;;;116.8;;
22515;SDS011;11424;48.860;9.624;2023-08-06T02:06:12;126.6;;;135.6;;
22515;SDS011;11424;48.860;9.624;2023-08-06T02:11:12;111.9;;;120.3;;
22515;SDS011;11424;48.860;9.624;2023-08-06T02:16:12;107.1;;;115.1;;
22515;SDS011;11424;48.860;9.624;2023-08-06T02:21:12;113;;;121.6;;
22515;SDS011;11424;48.860;9.624;2023-08-06T02:26:12;107.1;;;115.1;;
22515;SDS011;11424;48.860;9.624;2023-08-06T02:31:12;127;;;136.6;;
22515;SDS011;11424;48.860;9.624;2023-08-06T02:36:12;125.3;;;134.3;;
22515;SDS011;11424;48.860;9.624;2023-08-06T02:41:12;97.4;;;103.9;;
22515;SDS011;11424;48.860;9.624;2023-08-06T02:46:12;84;;;89.8;;
22515;SDS011;11424;48.860;9.624;2023-08-06T02:51:12;96.1;;;102.6;;
22515;SDS011;11424;48.860;9.624;2023-08-06T02:56:12;139;;;149.2;;
22515;SDS011;11424;48.860;9.624;2023-08-06T03:01:12;120.3;;;129.1;;
22515;SDS011;11424;48.860;9.624;2023-08-06T03:06:12;131.1;;;140.4;;
22515;SDS011;11424;48.860;9.624;2023-08-06T03:11:12;134.4;;;144.4;;
22515;SDS011;11424;48.860;9.624;2023-08-06T03:16:12;144.8;;;155.5;;
22515;SDS011;11424;48.860;9.624;2023-08-06T03:21:12;104.9;;;111.9;;
22515;SDS011;11424;48.860;9.624;2023-08-06T03:26:12;94.1;;;100.6;;
22515;SDS011;11424;48.860;9.624;2023-08-06T03:31:12;119.5;;;127.3;;
22515;SDS011;11424;48.860;9.624;2023-08-06T03:36:12;194.7;;;208.6;;
22515;SDS011;11424;48.860;9.624;2023-08-06T03:41:12;248.5;;;265.2;;
22515;SDS011;11424;48.860;9.624;2023-08-06T03:46:12;220.8;;;235.6;;
22515;SDS011;11424;48.860;9.624;2023-08-06T03:51:12;173.1;;;185.4;;
22515;SDS011;11424;48.860;9.624;2023-08-06T03:56:12;195.1;;;209.4;;
22515;SDS011;11424;48.860;9.624;2023-08-06T04:01:12;220.4;;;235;;
22515;SDS011;11424;48.860;9.624;2023-08-06T04:06:12;171.5;;;181.7;;
22515;SDS011;11424;48.860;9.624;2023-08-06T04:11:12;177.7;;;188.3;;
22515;SDS011;11424;48.860;9.624;2023-08-06T04:16:12;187.2;;;200.3;;
22515;SDS011;11424;48.860;9.624;2023-08-06T04:21:12;242.4;;;258.1;;
22515;SDS011;11424;48.860;9.624;2023-08-06T04:26:12;222.8;;;237.7;;
22515;SDS011;11424;48.860;9.624;2023-08-06T04:31:12;252.8;;;269.3;;
22515;SDS011;11424;48.860;9.624;2023-08-06T04:36:12;277.9;;;296.2;;
22515;SDS011;11424;48.860;9.624;2023-08-06T04:41:12;273.6;;;291.5;;
22515;SDS011;11424;48.860;9.624;2023-08-06T04:46:12;281.4;;;300.1;;
22515;SDS011;11424;48.860;9.624;2023-08-06T04:51:12;224.3;;;237;;
22515;SDS011;11424;48.860;9.624;2023-08-06T04:56:12;257.6;;;275;;
22515;SDS011;11424;48.860;9.624;2023-08-06T05:01:12;238.4;;;254.4;;
22515;SDS011;11424;48.860;9.624;2023-08-06T05:06:12;241.7;;;257.6;;
22515;SDS011;11424;48.860;9.624;2023-08-06T05:11:12;221.2;;;236.3;;
22515;SDS011;11424;48.860;9.624;2023-08-06T05:16:12;209.9;;;224.4;;
22515;SDS011;11424;48.860;9.624;2023-08-06T05:21:12;258.1;;;276.2;;
22515;SDS011;11424;48.860;9.624;2023-08-06T05:26:12;259.6;;;276.6;;
22515;SDS011;11424;48.860;9.624;2023-08-06T05:31:12;296.9;;;318.9;;
22515;SDS011;11424;48.860;9.624;2023-08-06T05:36:12;286.8;;;307.4;;
22515;SDS011;11424;48.860;9.624;2023-08-06T05:41:12;241.6;;;257.8;;
22515;SDS011;11424;48.860;9.624;2023-08-06T05:46:12;246.8;;;263.7;;
22515;SDS011;11424;48.860;9.624;2023-08-06T05:51:12;213.6;;;228;;
22515;SDS011;11424;48.860;9.624;2023-08-06T05:56:12;194.8;;;208.4;;
22515;SDS011;11424;48.860;9.624;2023-08-06T06:01:12;202.1;;;216.2;;
22515;SDS011;11424;48.860;9.624;2023-08-06T06:06:12;184.3;;;196.9;;
22515;SDS011;11424;48.860;9.624;2023-08-06T06:11:12;166.1;;;177.5;;
22515;SDS011;11424;48.860;9.624;2023-08-06T06:16:12;148;;;157.5;;
22515;SDS011;11424;48.860;9.624;2023-08-06T06:21:12;112.6;;;119.4;;
22515;SDS011;11424;48.860;9.624;2023-08-06T06:26:12;115.5;;;122.4;;
22515;SDS011;11424;48.860;9.624;2023-08-06T06:31:12;117;;;124.1;;
22515;SDS011;11424;48.860;9.624;2023-08-06T06:36:12;160.8;;;171.7;;
22515;SDS011;11424;48.860;9.624;2023-08-06T06:41:12;166.4;;;177.9;;
22515;SDS011;11424;48.860;9.624;2023-08-06T06:46:12;173.1;;;184.9;;
22515;SDS011;11424;48.860;9.624;2023-08-06T06:51:12;182.3;;;194.6;;
22515;SDS011;11424;48.860;9.624;2023-08-06T06:56:12;182.1;;;194.6;;
22515;SDS011;11424;48.860;9.624;2023-08-06T07:01:12;145.8;;;154.4;;
22515;SDS011;11424;48.860;9.624;2023-08-06T07:06:12;156.5;;;165.6;;
22515;SDS011;11424;48.860;9.624;2023-08-06T07:11:12;157;;;166.2;;
22515;SDS011;11424;48.860;9.624;2023-08-06T07:16:12;285;;;305.6;;
22515;SDS011;11424;48.860;9.624;2023-08-06T07:21:12;273.1;;;292.7;;
22515;SDS011;11424;48.860;9.624;2023-08-06T07:26:12;203.9;;;217.7;;
22515;SDS011;11424;48.860;9.624;2023-08-06T07:31:12;237.4;;;253.8;;
22515;SDS011;11424;48.860;9.624;2023-08-06T07:36:13;178.8;;;191;;
22515;SDS011;11424;48.860;9.624;2023-08-06T07:41:12;166.2;;;177.6;;
22515;SDS011;11424;48.860;9.624;2023-08-06T07:46:12;111.8;;;118.7;;
22515;SDS011;11424;48.860;9.624;2023-08-06T07:51:12;120.2;;;127.6;;
22515;SDS011;11424;48.860;9.624;2023-08-06T07:56:12;173.5;;;185.4;;
22515;SDS011;11424;48.860;9.624;2023-08-06T08:01:12;188.9;;;201.7;;
22515;SDS011;11424;48.860;9.624;2023-08-06T08:06:12;189.8;;;202.6;;
22515;SDS011;11424;48.860;9.624;2023-08-06T08:11:12;196.3;;;209.5;;
22515;SDS011;11424;48.860;9.624;2023-08-06T08:16:12;189.8;;;202.9;;
22515;SDS011;11424;48.860;9.624;2023-08-06T08:21:12;216;;;230.5;;
22515;SDS011;11424;48.860;9.624;2023-08-06T08:26:12;182.9;;;195;;
22515;SDS011;11424;48.860;9.624;2023-08-06T08:31:12;156.5;;;165.7;;
22515;SDS011;11424;48.860;9.624;2023-08-06T08:36:12;214.2;;;228.5;;
22515;SDS011;11424;48.860;9.624;2023-08-06T08:41:12;269.1;;;285.9;;
22515;SDS011;11424;48.860;9.624;2023-08-06T08:46:12;275.4;;;292.8;;
22515;SDS011;11424;48.860;9.624;2023-08-06T08:51:12;293.4;;;312.9;;
22515;SDS011;11424;48.860;9.624;2023-08-06T08:56:12;297.3;;;317.6;;
22515;SDS011;11424;48.860;9.624;2023-08-06T09:01:12;294.7;;;313.8;;
22515;SDS011;11424;48.860;9.624;2023-08-06T09:06:12;271.1;;;287.7;;
22515;SDS011;11424;48.860;9.624;2023-08-06T09:11:12;265.1;;;281.6;;
22515;SDS011;11424;48.860;9.624;2023-08-06T09:16:12;229.2;;;243;;
22515;SDS011;11424;48.860;9.624;2023-08-06T09:21:13;248.9;;;264.4;;
22515;SDS011;11424;48.860;9.624;2023-08-06T09:26:12;274.9;;;292.3;;
22515;SDS011;11424;48.860;9.624;2023-08-06T09:31:12;280.8;;;298.4;;
22515;SDS011;11424;48.860;9.624;2023-08-06T09:36:12;307.7;;;330.7;;
22515;SDS011;11424;48.860;9.624;2023-08-06T09:41:13;301.4;;;322.9;;
22515;SDS011;11424;48.860;9.624;2023-08-06T09:46:12;307.2;;;329.4;;
22515;SDS011;11424;48.860;9.624;2023-08-06T09:51:12;299.5;;;320.2;;
22515;SDS011;11424;48.860;9.624;2023-08-06T09:56:12;269.2;;;285.9;;
22515;SDS011;11424;48.860;9.624;2023-08-06T10:01:12;253.9;;;267.6;;
22515;SDS011;11424;48.860;9.624;2023-08-06T10:06:12;229.5;;;241.8;;
22515;SDS011;11424;48.860;9.624;2023-08-06T10:11:12;293.7;;;315.5;;
22515;SDS011;11424;48.860;9.624;2023-08-06T10:16:12;103.2;;;112;;
22515;SDS011;11424;48.860;9.624;2023-08-06T10:21:12;103.6;;;116;;
22515;SDS011;11424;48.860;9.624;2023-08-06T10:26:12;105;;;124.8;;
22515;SDS011;11424;48.860;9.624;2023-08-06T10:31:12;84.9;;;104;;
22515;SDS011;11424;48.860;9.624;2023-08-06T10:36:12;86.9;;;106.6;;
22515;SDS011;11424;48.860;9.624;2023-08-06T10:41:14;92.9;;;115.3;;
22515;SDS011;11424;48.860;9.624;2023-08-06T10:46:21;91.2;;;115.7;;
22515;SDS011;11424;48.860;9.624;2023-08-06T10:51:13;97.6;;;125.4;;
22515;SDS011;11424;48.860;9.624;2023-08-06T10:56:13;90.6;;;115.5;;
22515;SDS011;11424;48.860;9.624;2023-08-06T11:01:12;93.8;;;118.3;;
22515;SDS011;11424;48.860;9.624;2023-08-06T11:06:16;98.6;;;124;;
22515;SDS011;11424;48.860;9.624;2023-08-06T11:11:13;100.3;;;125.1;;
22515;SDS011;11424;48.860;9.624;2023-08-06T11:16:12;94.3;;;117.9;;
22515;SDS011;11424;48.860;9.624;2023-08-06T11:21:13;125;;;159.6;;
22515;SDS011;11424;48.860;9.624;2023-08-06T11:26:12;126;;;138.3;;
22515;SDS011;11424;48.860;9.624;2023-08-06T11:31:18;49.1;;;53.5;;
22515;SDS011;11424;48.860;9.624;2023-08-06T11:36:12;40.9;;;44.5;;
22515;SDS011;11424;48.860;9.624;2023-08-06T11:41:12;52.5;;;57.1;;
22515;SDS011;11424;48.860;9.624;2023-08-06T11:46:12;45.1;;;49.1;;
22515;SDS011;11424;48.860;9.624;2023-08-06T11:51:12;55.7;;;60.8;;
22515;SDS011;11424;48.860;9.624;2023-08-06T11:56:12;45.5;;;49.7;;
22515;SDS011;11424;48.860;9.624;2023-08-06T12:01:13;87.9;;;95.1;;
22515;SDS011;11424;48.860;9.624;2023-08-06T12:06:12;74.3;;;79.7;;
22515;SDS011;11424;48.860;9.624;2023-08-06T12:11:12;65.3;;;71.5;;
22515;SDS011;11424;48.860;9.624;2023-08-06T12:16:12;101.1;;;127.5;;
22515;SDS011;11424;48.860;9.624;2023-08-06T12:21:12;179.1;;;197.4;;
22515;SDS011;11424;48.860;9.624;2023-08-06T12:26:12;78.2;;;94.5;;
22515;SDS011;11424;48.860;9.624;2023-08-06T12:31:12;84.3;;;102.4;;
22515;SDS011;11424;48.860;9.624;2023-08-06T12:36:12;81.9;;;114;;
22515;SDS011;11424;48.860;9.624;2023-08-06T12:41:12;91.6;;;134.1;;
22515;SDS011;11424;48.860;9.624;2023-08-06T12:46:12;76.1;;;101.6;;
22515;SDS011;11424;48.860;9.624;2023-08-06T12:51:12;83.4;;;107.4;;
22515;SDS011;11424;48.860;9.624;2023-08-06T12:56:12;93.4;;;135.7;;
22515;SDS011;11424;48.860;9.624;2023-08-06T13:01:12;123.3;;;142.4;;
22515;SDS011;11424;48.860;9.624;2023-08-06T13:06:12;107.8;;;117.5;;
22515;SDS011;11424;48.860;9.624;2023-08-06T13:11:12;175.1;;;190.9;;
22515;SDS011;11424;48.860;9.624;2023-08-06T13:16:12;105.8;;;115.3;;
22515;SDS011;11424;48.860;9.624;2023-08-06T13:21:12;213.4;;;233.7;;
22515;SDS011;11424;48.860;9.624;2023-08-06T13:26:12;176.9;;;191.2;;
22515;SDS011;11424;48.860;9.624;2023-08-06T13:31:12;140.6;;;152.1;;
22515;SDS011;11424;48.860;9.624;2023-08-06T13:36:12;121.7;;;131.9;;
22515;SDS011;11424;48.860;9.624;2023-08-06T13:41:12;70;;;76.1;;
22515;SDS011;11424;48.860;9.624;2023-08-06T13:46:13;75.7;;;82.3;;
22515;SDS011;11424;48.860;9.624;2023-08-06T13:51:13;73.9;;;80.4;;
22515;SDS011;11424;48.860;9.624;2023-08-06T13:56:13;81.8;;;89;;
22515;SDS011;11424;48.860;9.624;2023-08-06T14:01:12;86.1;;;93.5;;
22515;SDS011;11424;48.860;9.624;2023-08-06T14:06:12;80.1;;;87.1;;
22515;SDS011;11424;48.860;9.624;2023-08-06T14:11:13;81.9;;;88.8;;
22515;SDS011;11424;48.860;9.624;2023-08-06T14:16:12;75.9;;;82.3;;
22515;SDS011;11424;48.860;9.624;2023-08-06T14:21:12;78.1;;;84.7;;
22515;SDS011;11424;48.860;9.624;2023-08-06T14:26:12;73.5;;;79.8;;
22515;SDS011;11424;48.860;9.624;2023-08-06T14:31:12;76;;;82.7;;
22515;SDS011;11424;48.860;9.624;2023-08-06T14:36:12;79.7;;;86.8;;
22515;SDS011;11424;48.860;9.624;2023-08-06T14:41:12;78;;;85;;
22515;SDS011;11424;48.860;9.624;2023-08-06T14:46:12;80.7;;;87.8;;
22515;SDS011;11424;48.860;9.624;2023-08-06T14:51:12;82.5;;;89.9;;
22515;SDS011;11424;48.860;9.624;2023-08-06T14:56:12;73.3;;;80;;
22515;SDS011;11424;48.860;9.624;2023-08-06T15:01:12;85.9;;;93.6;;
22515;SDS011;11424;48.860;9.624;2023-08-06T15:06:12;97.7;;;106.6;;
22515;SDS011;11424;48.860;9.624;2023-08-06T15:11:13;57.5;;;62.9;;
22515;SDS011;11424;48.860;9.624;2023-08-06T15:16:13;50;;;54.7;;
22515;SDS011;11424;48.860;9.624;2023-08-06T15:21:13;82.1;;;90.3;;
22515;SDS011;11424;48.860;9.624;2023-08-06T15:26:12;54.8;;;60.4;;
22515;SDS011;11424;48.860;9.624;2023-08-06T15:31:12;61.1;;;67.2;;
22515;SDS011;11424;48.860;9.624;2023-08-06T15:36:13;47.4;;;52.5;;
22515;SDS011;11424;48.860;9.624;2023-08-06T15:41:13;52.8;;;58.1;;
22515;SDS011;11424;48.860;9.624;2023-08-06T15:46:13;71.7;;;77.6;;
22515;SDS011;11424;48.860;9.624;2023-08-06T15:51:13;91.2;;;97.9;;
22515;SDS011;11424;48.860;9.624;2023-08-06T15:56:13;44.2;;;48.6;;
22515;SDS011;11424;48.860;9.624;2023-08-06T16:01:13;51.7;;;56.8;;
22515;SDS011;11424;48.860;9.624;2023-08-06T16:06:13;66.8;;;73.7;;
22515;SDS011;11424;48.860;9.624;2023-08-06T16:11:13;51.9;;;57.3;;
22515;SDS011;11424;48.860;9.624;2023-08-06T16:16:13;61.4;;;67.3;;
22515;SDS011;11424;48.860;9.624;2023-08-06T16:21:13;62.6;;;68.9;;
22515;SDS011;11424;48.860;9.624;2023-08-06T16:26:13;68.4;;;75.4;;
22515;SDS011;11424;48.860;9.624;2023-08-06T16:31:13;107.8;;;116.1;;
22515;SDS011;11424;48.860;9.624;2023-08-06T16:36:13;57.7;;;63.2;;
22515;SDS011;11424;48.860;9.624;2023-08-06T16:41:13;68.2;;;74.4;;
22515;SDS011;11424;48.860;9.624;2023-08-06T16:46:13;51.7;;;56.9;;
22515;SDS011;11424;48.860;9.624;2023-08-06T16:51:13;105.7;;;114;;
22515;SDS011;11424;48.860;9.624;2023-08-06T16:56:13;48.1;;;53.2;;
22515;SDS011;11424;48.860;9.624;2023-08-06T17:01:13;34.2;;;38.2;;
22515;SDS011;11424;48.860;9.624;2023-08-06T17:06:13;55.4;;;60.8;;
22515;SDS011;11424;48.860;9.624;2023-08-06T17:11:13;59.9;;;66.1;;
22515;SDS011;11424;48.860;9.624;2023-08-06T17:16:13;76.8;;;85.6;;
22515;SDS011;11424;48.860;9.624;2023-08-06T17:21:13;37.2;;;41.5;;
22515;SDS011;11424;48.860;9.624;2023-08-06T17:26:13;28.7;;;31.8;;
22515;SDS011;11424;48.860;9.624;2023-08-06T17:31:13;39.2;;;43.9;;
22515;SDS011;11424;48.860;9.624;2023-08-06T17:36:13;72.5;;;81;;
22515;SDS011;11424;48.860;9.624;2023-08-06T17:41:13;83.7;;;120.2;;
22515;SDS011;11424;48.860;9.624;2023-08-06T17:46:13;84;;;117.5;;
22515;SDS011;11424;48.860;9.624;2023-08-06T17:51:13;79.9;;;89.5;;
22515;SDS011;11424;48.860;9.624;2023-08-06T17:56:13;70;;;82.9;;
22515;SDS011;11424;48.860;9.624;2023-08-06T18:01:13;84.1;;;109.8;;
22515;SDS011;11424;48.860;9.624;2023-08-06T18:06:13;77.5;;;96.6;;
22515;SDS011;11424;48.860;9.624;2023-08-06T18:11:13;87.7;;;133;;
22515;SDS011;11424;48.860;9.624;2023-08-06T18:16:13;87.9;;;126.4;;
22515;SDS011;11424;48.860;9.624;2023-08-06T18:21:13;78.3;;;87.6;;
22515;SDS011;11424;48.860;9.624;2023-08-06T18:26:13;80;;;101.6;;
22515;SDS011;11424;48.860;9.624;2023-08-06T18:31:13;86.5;;;114.5;;
22515;SDS011;11424;48.860;9.624;2023-08-06T18:36:13;90;;;122.8;;
22515;SDS011;11424;48.860;9.624;2023-08-06T18:41:13;81.1;;;129.1;;
22515;SDS011;11424;48.860;9.624;2023-08-06T18:46:13;89.2;;;155.3;;
22515;SDS011;11424;48.860;9.624;2023-08-06T18:51:13;85.9;;;150.3;;
22515;SDS011;11424;48.860;9.624;2023-08-06T18:56:13;35.3;;;57.3;;
22515;SDS011;11424;48.860;9.624;2023-08-06T19:01:13;32.3;;;34.5;;
22515;SDS011;11424;48.860;9.624;2023-08-06T19:06:13;18.9;;;20.1;;
22515;SDS011;11424;48.860;9.624;2023-08-06T19:11:13;23.9;;;25.7;;
22515;SDS011;11424;48.860;9.624;2023-08-06T19:16:13;24.2;;;26.1;;
22515;SDS011;11424;48.860;9.624;2023-08-06T19:21:13;26.4;;;28.5;;
22515;SDS011;11424;48.860;9.624;2023-08-06T19:26:13;21.6;;;23.2;;
22515;SDS011;11424;48.860;9.624;2023-08-06T19:31:13;27.5;;;29.6;;
22515;SDS011;11424;48.860;9.624;2023-08-06T19:36:13;27.5;;;29.5;;
22515;SDS011;11424;48.860;9.624;2023-08-06T19:41:13;31.2;;;33.9;;
22515;SDS011;11424;48.860;9.624;2023-08-06T19:46:13;33.3;;;37;;
22515;SDS011;11424;48.860;9.624;2023-08-06T19:51:13;50.3;;;53.9;;
22515;SDS011;11424;48.860;9.624;2023-08-06T19:56:13;31.6;;;35;;
22515;SDS011;11424;48.860;9.624;2023-08-06T20:01:13;34.4;;;38.2;;
22515;SDS011;11424;48.860;9.624;2023-08-06T20:06:13;41.4;;;46.3;;
22515;SDS011;11424;48.860;9.624;2023-08-06T20:11:13;55.6;;;59.2;;
22515;SDS011;11424;48.860;9.624;2023-08-06T20:16:13;50.9;;;54.4;;
22515;SDS011;11424;48.860;9.624;2023-08-06T20:21:13;56.3;;;61.8;;
22515;SDS011;11424;48.860;9.624;2023-08-06T20:26:13;26.8;;;28.9;;
22515;SDS011;11424;48.860;9.624;2023-08-06T20:31:13;33.6;;;36.3;;
22515;SDS011;11424;48.860;9.624;2023-08-06T20:36:13;28.5;;;31.4;;
22515;SDS011;11424;48.860;9.624;2023-08-06T20:41:13;33.7;;;37.6;;
22515;SDS011;11424;48.860;9.624;2023-08-06T20:46:13;37;;;41.2;;
22515;SDS011;11424;48.860;9.624;2023-08-06T20:51:13;31.6;;;33.7;;
22515;SDS011;11424;48.860;9.624;2023-08-06T20:56:13;35.9;;;39.5;;
22515;SDS011;11424;48.860;9.624;2023-08-06T21:01:13;32.1;;;34.9;;
22515;SDS011;11424;48.860;9.624;2023-08-06T21:06:13;45.1;;;48.9;;
22515;SDS011;11424;48.860;9.624;2023-08-06T21:11:13;30.6;;;33.5;;
22515;SDS011;11424;48.860;9.624;2023-08-06T21:16:13;36.3;;;40.4;;
22515;SDS011;11424;48.860;9.624;2023-08-06T21:21:13;35.4;;;39.4;;
22515;SDS011;11424;48.860;9.624;2023-08-06T21:26:13;33.4;;;37.1;;
22515;SDS011;11424;48.860;9.624;2023-08-06T21:31:13;26.7;;;29;;
22515;SDS011;11424;48.860;9.624;2023-08-06T21:36:13;19.5;;;20.9;;
22515;SDS011;11424;48.860;9.624;2023-08-06T21:41:13;19.9;;;21.6;;
22515;SDS011;11424;48.860;9.624;2023-08-06T21:46:13;6.5;;;6.9;;
22515;SDS011;11424;48.860;9.624;2023-08-06T21:51:13;4.8;;;5;;
22515;SDS011;11424;48.860;9.624;2023-08-06T21:56:13;4.9;;;5.2;;
22515;SDS011;11424;48.860;9.624;2023-08-06T22:01:13;5.2;;;5.5;;
22515;SDS011;11424;48.860;9.624;2023-08-06T22:06:14;7.1;;;7.5;;
22515;SDS011;11424;48.860;9.624;2023-08-06T22:11:13;6.2;;;6.5;;
22515;SDS011;11424;48.860;9.624;2023-08-06T22:16:13;7.7;;;8.1;;
22515;SDS011;11424;48.860;9.624;2023-08-06T22:21:13;12;;;15.9;;
22515;SDS011;11424;48.860;9.624;2023-08-06T22:26:13;1.7;;;1.8;;
22515;SDS011;11424;48.860;9.624;2023-08-06T22:31:13;3;;;3.1;;
22515;SDS011;11424;48.860;9.624;2023-08-06T22:36:13;3.4;;;3.6;;
22515;SDS011;11424;48.860;9.624;2023-08-06T22:41:13;14.2;;;16.1;;
22515;SDS011;11424;48.860;9.624;2023-08-06T22:46:13;13.9;;;16.1;;
22515;SDS011;11424;48.860;9.624;2023-08-06T22:51:13;15.3;;;17.1;;
22515;SDS011;11424;48.860;9.624;2023-08-06T22:56:13;12.8;;;15.2;;
22515;SDS011;11424;48.860;9.624;2023-08-06T23:01:13;15;;;19;;
22515;SDS011;11424;48.860;9.624;2023-08-06T23:06:13;15.3;;;17.8;;
22515;SDS011;11424;48.860;9.624;2023-08-06T23:11:13;3.8;;;4;;
22515;SDS011;11424;48.860;9.624;2023-08-06T23:16:13;4.8;;;5;;
22515;SDS011;11424;48.860;9.624;2023-08-06T23:21:13;15.7;;;17.6;;
22515;SDS011;11424;48.860;9.624;2023-08-06T23:26:13;15;;;17;;
22515;SDS011;11424;48.860;9.624;2023-08-06T23:31:13;14.3;;;16.1;;
22515;SDS011;11424;48.860;9.624;2023-08-06T23:36:13;15.4;;;17.3;;
22515;SDS011;11424;48.860;9.624;2023-08-06T23:41:13;18.4;;;21;;
22515;SDS011;11424;48.860;9.624;2023-08-06T23:46:13;14.7;;;16.5;;
22515;SDS011;11424;48.860;9.624;2023-08-06T23:51:13;17;;;19.5;;
22515;SDS011;11424;48.860;9.624;2023-08-06T23:56:13;6.9;;;7.2;;
